CDT,Max TemperatureF,Mean TemperatureF,Min TemperatureF,Max Dew PointF,MeanDew PointF,Min DewpointF,Max Humidity, Mean Humidity, Min Humidity, Max Sea Level PressureIn, Mean Sea Level PressureIn, Min Sea Level PressureIn, Max VisibilityMiles, Mean VisibilityMiles, Min VisibilityMiles, Max Wind SpeedMPH, Mean Wind SpeedMPH, Max Gust SpeedMPH,PrecipitationIn, CloudCover, Events, WindDirDegrees
2013-7-1,86,70,53,58,53,49,88,63,29,30.19,30.14,30.09,8,5,2,14,6,22,0.00,1,,359
2013-7-2,86,68,55,61,57,52,90,67,34,30.16,30.09,30.04,7,5,2,7,2,,0.00,1,,289
2013-7-3,86,70,55,59,56,53,94,64,34,30.06,30.00,29.91,8,5,2,9,2,,0.00,1,,224
2013-7-4,88,74,59,59,57,54,87,58,31,29.96,29.91,29.84,8,7,6,18,9,25,0.00,0,,164
2013-7-5,88,75,63,65,61,57,84,62,43,29.87,29.84,29.79,7,6,4,20,9,30,0.00,1,Rain,154
2013-7-6,91,80,69,68,65,61,78,61,45,29.83,29.79,29.75,6,5,4,18,11,25,0.00,0,,155
2013-7-7,91,82,72,74,68,61,79,62,50,29.87,29.81,29.78,7,6,4,13,8,18,0.00,1,,185
2013-7-8,91,82,72,74,71,68,87,72,53,29.94,29.89,29.86,8,6,4,10,4,,0.01,1,Rain-Thunderstorm,157
2013-7-9,95,83,71,75,71,64,94,76,49,29.97,29.89,29.82,10,7,1,20,8,26,0.49,3,Rain-Thunderstorm,354
2013-7-10,84,75,64,69,63,58,94,73,41,30.08,30.03,29.94,10,7,2,13,5,17,0.00,0,,356
2013-7-11,87,72,59,64,60,57,94,72,44,30.09,30.03,29.93,7,5,0,16,3,20,0.00,0,Fog,141
2013-7-12,91,78,66,71,65,59,79,63,50,29.96,29.92,29.86,8,7,5,18,11,25,0.00,0,,146
2013-7-13,91,82,72,74,67,62,71,63,52,29.94,29.90,29.87,9,7,6,17,11,23,0.00,0,,146
2013-7-14,88,78,66,66,62,58,87,59,39,30.13,30.03,29.96,10,9,6,15,11,21,0.00,2,,140
2013-7-15,89,75,61,70,65,57,90,72,52,30.20,30.14,30.09,8,5,2,10,3,18,0.00,1,,144
2013-7-16,91,77,64,71,66,63,94,71,43,30.23,30.19,30.14,10,7,2,12,3,16,0.00,0,,185
2013-7-17,93,80,68,72,69,65,90,69,44,30.26,30.19,30.13,10,8,4,13,3,18,0.00,0,,186
2013-7-18,93,81,69,71,69,66,93,67,42,30.12,30.00,29.87,10,8,5,17,7,25,0.00,0,,183
2013-7-19,93,82,69,71,67,62,83,63,36,29.92,29.87,29.83,10,8,1,13,7,18,0.16,2,Rain-Thunderstorm,283
2013-7-20,87,74,61,68,63,59,93,70,46,29.98,29.90,29.83,10,9,6,14,3,,0.00,0,,49
2013-7-21,91,78,66,71,67,63,94,75,50,29.88,29.81,29.74,10,8,2,10,2,,0.00,2,Rain,175
2013-7-22,96,80,66,74,68,62,94,73,44,29.83,29.76,29.71,10,7,0,13,5,20,0.01,0,Fog,185
2013-7-23,84,73,63,63,60,58,90,71,42,29.98,29.92,29.82,10,10,6,14,6,,0.01,1,Rain,11
2013-7-24,84,70,55,63,59,53,90,67,43,30.07,30.02,29.98,10,9,6,7,4,,0.00,1,,5
2013-7-25,84,74,64,70,65,61,93,78,56,30.02,29.98,29.92,10,7,0,17,5,23,0.15,4,Rain-Thunderstorm,178
2013-7-26,75,67,57,65,58,52,100,78,46,30.09,30.03,29.95,10,6,0,18,4,28,0.01,1,Fog,344
2013-7-27,75,63,51,52,48,44,90,63,34,30.13,30.07,30.00,10,10,8,15,7,22,0.00,1,,335
2013-7-28,78,60,44,53,47,41,89,63,34,30.07,30.04,30.01,10,10,9,6,2,,0.00,0,,49
2013-7-29,70,62,53,64,58,49,94,82,73,30.07,30.04,30.00,10,9,2,12,3,,0.05,7,Rain,131
2013-7-30,77,70,64,67,64,63,100,88,69,30.09,30.06,30.02,10,4,1,9,4,,0.00,8,,35
2013-7-31,87,70,57,67,61,57,97,81,48,30.14,30.09,30.02,10,4,0,7,1,,0.00,2,Fog,350